Time;durP1;ratioP1;P1;durP2;ratioP2;P2;SDS_P1;SDS_P2;PMS_P1;PMS_P2;Temp;Humidity;BMP_temperature;BMP_pressure;BME280_temperature;BME280_humidity;BME280_pressure;Samples;Min_cycle;Max_cycle;Signal;HPM_P1;HPM_P2
2021/04/24 00:01:13;;;;;;;4.22;1.90;;;;;;;14.46;54.58;101228.88;5049133;28;20060;-69
2021/04/24 00:03:41;;;;;;;3.17;1.80;;;;;;;14.49;54.66;101228.00;5049262;28;20382;-69
2021/04/24 00:06:09;;;;;;;6.38;1.98;;;;;;;14.49;54.46;101226.25;5042120;28;20057;-69
2021/04/24 00:08:37;;;;;;;4.07;1.80;;;;;;;14.52;54.32;101234.22;5046912;28;20041;-70
2021/04/24 00:11:04;;;;;;;4.03;2.33;;;;;;;14.39;54.59;101224.38;5049990;28;20073;-70
2021/04/24 00:13:31;;;;;;;4.05;2.20;;;;;;;14.36;54.74;101233.22;5041102;28;20061;-72
2021/04/24 00:15:59;;;;;;;3.97;1.58;;;;;;;14.42;54.77;101224.44;5047961;28;20037;-69
2021/04/24 00:18:26;;;;;;;3.40;2.20;;;;;;;14.43;54.77;101222.66;5049199;28;20059;-69
2021/04/24 00:20:54;;;;;;;3.47;2.00;;;;;;;14.42;54.87;101221.78;5049787;28;20135;-69
2021/04/24 00:23:21;;;;;;;2.92;1.60;;;;;;;14.42;54.74;101218.22;5048306;28;20064;-69
2021/04/24 00:25:48;;;;;;;3.25;1.60;;;;;;;14.38;54.84;101219.06;5049687;28;20128;-69
2021/04/24 00:28:15;;;;;;;3.60;1.67;;;;;;;14.33;54.79;101208.38;5049390;28;20064;-68
2021/04/24 00:30:43;;;;;;;5.07;1.95;;;;;;;14.30;54.85;101206.59;5048596;28;20465;-69
2021/04/24 00:33:12;;;;;;;6.50;2.10;;;;;;;14.29;54.87;101203.94;5029291;28;20041;-69
2021/04/24 00:35:39;;;;;;;3.55;1.52;;;;;;;14.24;55.04;101197.69;5042076;28;20129;-69
2021/04/24 00:38:08;;;;;;;4.72;1.58;;;;;;;14.19;55.53;101194.09;5049262;28;20099;-69
2021/04/24 00:40:35;;;;;;;4.35;1.98;;;;;;;14.22;55.52;101196.78;5049036;28;20119;-69
2021/04/24 00:43:03;;;;;;;3.88;2.17;;;;;;;14.22;55.30;101197.69;5043873;28;20112;-70
2021/04/24 00:45:31;;;;;;;4.50;1.60;;;;;;;14.29;55.04;101198.63;5041215;28;20120;-68
2021/04/24 00:47:59;;;;;;;3.72;1.60;;;;;;;14.38;54.61;101200.47;5049315;28;20056;-69
2021/04/24 00:50:29;;;;;;;3.40;1.80;;;;;;;14.37;54.48;101196.91;5048709;28;20124;-69
2021/04/24 00:52:56;;;;;;;3.50;1.70;;;;;;;14.38;54.30;101198.69;5048742;28;20041;-69
2021/04/24 00:55:25;;;;;;;3.63;1.88;;;;;;;14.32;54.33;101202.16;5048500;28;20072;-68
2021/04/24 00:57:52;;;;;;;3.75;1.40;;;;;;;14.34;53.83;101202.19;5047811;28;20124;-69
2021/04/24 01:00:23;;;;;;;3.10;1.60;;;;;;;14.30;53.98;101205.72;5047985;28;20116;-69
2021/04/24 01:02:50;;;;;;;2.65;1.63;;;;;;;14.25;54.14;101204.75;5048324;28;20037;-69
2021/04/24 01:05:20;;;;;;;4.10;1.60;;;;;;;14.23;54.17;101198.56;5048297;28;20057;-69
2021/04/24 01:07:48;;;;;;;2.40;1.35;;;;;;;14.20;54.36;101199.44;5031364;28;20098;-69
2021/04/24 01:10:17;;;;;;;2.47;1.52;;;;;;;14.22;54.39;101200.34;5048171;28;20095;-68
2021/04/24 01:12:47;;;;;;;3.45;1.40;;;;;;;14.23;54.25;101204.78;5048228;28;20061;-69
2021/04/24 01:15:17;;;;;;;4.43;1.70;;;;;;;14.24;54.39;101187.09;5048683;28;20716;-68
2021/04/24 01:17:44;;;;;;;2.92;1.45;;;;;;;14.23;54.38;101183.53;5046881;28;20061;-69
2021/04/24 01:20:13;;;;;;;2.13;1.50;;;;;;;14.26;54.79;101178.22;5048556;28;20135;-69
2021/04/24 01:22:42;;;;;;;5.32;1.13;;;;;;;14.35;53.72;101178.31;5047992;28;20132;-69
2021/04/24 01:25:15;;;;;;;3.50;1.60;;;;;;;14.35;53.52;101177.41;5048282;28;20112;-69
2021/04/24 01:27:42;;;;;;;2.50;1.20;;;;;;;14.33;53.66;101177.41;5048726;28;20068;-69
2021/04/24 01:30:11;;;;;;;2.53;1.15;;;;;;;14.32;53.40;101178.28;5047921;28;20515;-69
2021/04/24 01:32:38;;;;;;;3.28;1.50;;;;;;;14.33;53.28;101176.50;5047613;28;20060;-69
2021/04/24 01:35:07;;;;;;;2.10;1.10;;;;;;;14.17;53.69;101175.53;5030885;28;20128;-69
2021/04/24 01:37:34;;;;;;;2.58;1.30;;;;;;;14.11;53.61;101188.72;5047892;28;20124;-68
2021/04/24 01:40:04;;;;;;;2.40;1.75;;;;;;;14.21;53.67;101190.59;5047677;28;20061;-71
2021/04/24 01:42:32;;;;;;;3.00;1.30;;;;;;;14.30;53.18;101189.78;5047996;28;20064;-70
2021/04/24 01:45:00;;;;;;;2.35;1.20;;;;;;;14.38;53.03;101187.19;5048471;28;20045;-69
2021/04/24 01:47:27;;;;;;;3.15;1.23;;;;;;;14.39;52.72;101188.97;5047661;28;20116;-68
2021/04/24 01:49:54;;;;;;;4.30;1.40;;;;;;;14.33;53.01;101188.00;5048012;28;20044;-68
2021/04/24 01:52:21;;;;;;;4.97;1.33;;;;;;;14.30;52.98;101190.66;5048389;28;20037;-68
2021/04/24 01:54:48;;;;;;;2.25;1.10;;;;;;;14.36;52.73;101187.16;5046957;28;20072;-68
2021/04/24 01:57:16;;;;;;;3.55;1.10;;;;;;;14.31;52.50;101189.75;5046606;28;20495;-69
2021/04/24 01:59:43;;;;;;;3.95;1.45;;;;;;;14.27;53.09;101187.97;5029949;28;20041;-68
2021/04/24 02:02:10;;;;;;;3.50;1.38;;;;;;;14.24;52.91;101193.25;5047423;28;20124;-68
2021/04/24 02:04:37;;;;;;;2.00;0.98;;;;;;;14.17;53.24;101190.56;5048006;28;20453;-68
2021/04/24 02:07:04;;;;;;;1.85;1.17;;;;;;;14.20;53.20;101206.50;5046781;28;20068;-69
2021/04/24 02:09:31;;;;;;;2.53;1.20;;;;;;;14.22;52.96;101204.75;5037793;28;20123;-69
2021/04/24 02:12:11;;;;;;;3.47;1.58;;;;;;;14.27;52.48;101205.66;5048392;28;20520;-68
2021/04/24 02:14:44;;;;;;;3.20;1.63;;;;;;;14.31;52.64;101205.69;5031247;28;20512;-68
2021/04/24 02:17:15;;;;;;;3.65;1.75;;;;;;;14.34;51.89;101200.44;5047788;28;20033;-68
2021/04/24 02:19:44;;;;;;;2.55;1.40;;;;;;;14.35;51.63;101199.56;5047730;28;20150;-69
2021/04/24 02:22:11;;;;;;;3.03;1.50;;;;;;;14.36;51.49;101200.44;5040686;28;20057;-68
2021/04/24 02:24:40;;;;;;;2.50;1.10;;;;;;;14.31;51.53;101203.03;5051255;28;20148;-69
2021/04/24 02:27:09;;;;;;;2.63;1.35;;;;;;;14.35;51.50;101212.84;5034683;28;20405;-69
2021/04/24 02:29:36;;;;;;;2.95;1.20;;;;;;;14.30;51.67;101217.22;5051696;28;20037;-68
2021/04/24 02:32:06;;;;;;;1.52;1.05;;;;;;;14.26;51.53;101227.78;5051358;28;20504;-69
2021/04/24 02:34:34;;;;;;;2.03;1.27;;;;;;;14.21;51.76;101219.81;5051785;28;20497;-68
2021/04/24 02:37:01;;;;;;;2.10;1.38;;;;;;;14.18;51.64;101216.22;5051690;28;20044;-69
2021/04/24 02:39:33;;;;;;;1.90;1.10;;;;;;;14.21;51.85;101221.56;5051449;28;20128;-69
2021/04/24 02:42:01;;;;;;;2.45;1.30;;;;;;;14.23;51.44;101226.03;5051345;28;20041;-68
2021/04/24 02:44:28;;;;;;;2.03;1.00;;;;;;;14.25;51.49;101229.56;5051649;28;20071;-68
2021/04/24 02:46:55;;;;;;;2.13;1.30;;;;;;;14.26;51.30;101238.41;5049507;28;20168;-68
2021/04/24 02:49:23;;;;;;;2.80;1.50;;;;;;;14.28;51.58;101245.53;5051255;28;20044;-68
2021/04/24 02:51:51;;;;;;;1.83;1.30;;;;;;;14.24;51.39;101246.38;5051543;28;20564;-68
2021/04/24 02:54:18;;;;;;;4.35;1.50;;;;;;;14.23;51.52;101241.97;5051076;28;20033;-69
2021/04/24 02:56:45;;;;;;;1.77;1.17;;;;;;;14.19;52.03;101242.78;5051107;28;20136;-68
2021/04/24 02:59:13;;;;;;;3.92;1.17;;;;;;;14.18;52.28;101256.03;5050946;28;20511;-68
2021/04/24 03:01:40;;;;;;;1.80;0.90;;;;;;;14.14;52.26;101265.75;5050495;28;20051;-68
2021/04/24 03:04:07;;;;;;;1.90;1.00;;;;;;;14.12;51.83;101277.22;5033098;28;20128;-69
2021/04/24 03:06:36;;;;;;;1.02;0.90;;;;;;;14.04;51.63;101269.22;5048717;28;20064;-69
2021/04/24 03:09:03;;;;;;;2.92;1.00;;;;;;;14.05;51.15;101270.97;5051006;28;20037;-71
2021/04/24 03:11:32;;;;;;;1.25;0.90;;;;;;;14.08;51.40;101275.44;5033551;28;20040;-69
2021/04/24 03:13:59;;;;;;;2.22;1.23;;;;;;;14.10;51.35;101271.94;5031191;28;20041;-69
2021/04/24 03:16:26;;;;;;;1.83;1.13;;;;;;;14.11;51.65;101268.38;5050852;28;20125;-69
2021/04/24 03:18:54;;;;;;;2.05;1.25;;;;;;;13.99;52.38;101273.56;5050402;28;20057;-68
2021/04/24 03:21:21;;;;;;;3.20;1.25;;;;;;;13.92;52.79;101277.03;5049768;28;20133;-68
2021/04/24 03:23:52;;;;;;;2.75;1.10;;;;;;;13.86;53.36;101280.53;5050948;28;20497;-68
2021/04/24 03:26:20;;;;;;;4.97;1.55;;;;;;;13.78;53.71;101274.28;5050367;28;20045;-68
2021/04/24 03:28:47;;;;;;;3.33;1.40;;;;;;;13.83;53.33;101275.19;5050644;28;20120;-69
2021/04/24 03:31:14;;;;;;;1.88;1.23;;;;;;;13.93;53.27;101265.53;5050135;28;20532;-68
2021/04/24 03:33:42;;;;;;;3.30;1.13;;;;;;;13.98;53.46;101263.81;5049531;28;20163;-69
2021/04/24 03:36:10;;;;;;;2.10;1.20;;;;;;;14.04;53.24;101255.94;5050958;28;20056;-69
2021/04/24 03:38:37;;;;;;;2.63;1.17;;;;;;;14.08;52.87;101262.16;5036068;28;20120;-68
2021/04/24 03:41:07;;;;;;;2.85;1.63;;;;;;;14.04;52.64;101255.06;5047230;28;20115;-69
2021/04/24 03:43:34;;;;;;;7.75;4.75;;;;;;;14.00;52.81;101255.88;5050761;28;20548;-69
2021/04/24 03:46:01;;;;;;;3.13;2.10;;;;;;;14.08;52.87;101255.09;5050332;28;20040;-69
2021/04/24 03:48:29;;;;;;;5.72;1.27;;;;;;;14.12;53.09;101262.19;5050165;28;20121;-68
2021/04/24 03:50:57;;;;;;;3.20;2.15;;;;;;;14.16;53.19;101248.09;5050620;28;20489;-68
2021/04/24 03:53:24;;;;;;;1.90;1.23;;;;;;;14.14;53.33;101248.94;5050276;28;20048;-68
2021/04/24 03:55:51;;;;;;;2.00;1.40;;;;;;;14.12;53.62;101250.69;5028113;28;20048;-68
2021/04/24 03:58:19;;;;;;;2.20;1.58;;;;;;;14.04;54.06;101252.41;5044674;28;20505;-70
2021/04/24 04:00:47;;;;;;;3.85;1.75;;;;;;;13.98;53.91;101256.75;5030714;28;20060;-69
2021/04/24 04:03:14;;;;;;;2.72;1.17;;;;;;;14.04;54.27;101260.38;5048196;28;20041;-69
2021/04/24 04:05:43;;;;;;;2.83;1.77;;;;;;;14.10;54.43;101256.00;5050104;28;20087;-68
2021/04/24 04:08:12;;;;;;;2.35;1.00;;;;;;;14.15;53.65;101246.31;5049479;28;20507;-68
2021/04/24 04:10:40;;;;;;;2.67;1.30;;;;;;;14.18;53.63;101238.34;5043121;28;20096;-69
2021/04/24 04:13:09;;;;;;;1.27;0.82;;;;;;;14.23;53.34;101243.72;5042022;28;20048;-68
2021/04/24 04:15:38;;;;;;;1.83;1.00;;;;;;;14.29;53.28;101236.69;5049643;28;20116;-68
2021/04/24 04:18:08;;;;;;;1.83;0.98;;;;;;;14.38;52.95;101248.28;5049675;28;20044;-68
2021/04/24 04:20:37;;;;;;;4.28;1.30;;;;;;;14.38;53.15;101237.66;5049333;28;20041;-68
2021/04/24 04:23:04;;;;;;;1.80;1.10;;;;;;;14.40;53.35;101227.94;5049546;28;20124;-69
2021/04/24 04:25:31;;;;;;;3.35;1.27;;;;;;;14.53;53.27;101227.16;5049810;28;20060;-68
2021/04/24 04:27:58;;;;;;;3.22;1.25;;;;;;;14.60;53.22;101213.03;5049649;28;20041;-69
2021/04/24 04:30:25;;;;;;;2.03;1.10;;;;;;;14.61;53.07;101198.88;5048860;28;20116;-69
2021/04/24 04:32:54;;;;;;;3.42;1.00;;;;;;;14.65;53.00;101203.31;5040142;28;20107;-68
2021/04/24 04:35:22;;;;;;;3.60;1.50;;;;;;;14.68;53.23;101192.72;5040227;28;20064;-68
2021/04/24 04:37:49;;;;;;;2.90;1.83;;;;;;;14.65;53.62;101195.34;5029081;28;20072;-69
2021/04/24 04:40:17;;;;;;;2.90;1.92;;;;;;;14.59;54.20;101200.63;5045189;28;20496;-69
2021/04/24 04:42:46;;;;;;;5.20;3.05;;;;;;;14.59;55.07;101214.78;5032221;28;20120;-69
2021/04/24 04:45:16;;;;;;;4.53;1.98;;;;;;;14.68;54.87;101208.66;5039381;28;20070;-68
2021/04/24 04:47:43;;;;;;;8.73;2.00;;;;;;;14.79;55.18;101201.63;5049451;28;20562;-69
2021/04/24 04:50:15;;;;;;;3.55;1.20;;;;;;;14.88;55.13;101204.34;5049250;28;20116;-69
2021/04/24 04:52:43;;;;;;;1.98;1.20;;;;;;;14.94;54.76;101199.06;5048320;28;20083;-69
2021/04/24 04:55:11;;;;;;;5.10;1.40;;;;;;;15.01;54.51;101205.28;5047125;28;20033;-69
2021/04/24 04:57:39;;;;;;;4.32;1.27;;;;;;;15.11;54.20;101204.44;5049353;28;20128;-69
2021/04/24 05:00:09;;;;;;;5.18;1.67;;;;;;;15.25;54.17;101204.47;5049153;28;20045;-69
2021/04/24 05:02:36;;;;;;;1.50;1.08;;;;;;;15.36;54.08;101194.78;5048636;28;20053;-69
2021/04/24 05:05:03;;;;;;;2.13;1.20;;;;;;;15.46;54.25;101199.25;5049421;28;20165;-68
2021/04/24 05:07:38;;;;;;;2.35;1.50;;;;;;;15.54;53.64;101195.75;5045647;28;20087;-69
2021/04/24 05:10:06;;;;;;;5.43;2.22;;;;;;;15.64;53.33;101203.75;5043416;28;20055;-70
2021/04/24 05:12:33;;;;;;;14.55;4.75;;;;;;;15.77;53.21;101206.44;5047645;28;20123;-69
2021/04/24 05:15:00;;;;;;;12.07;4.90;;;;;;;15.80;53.80;101201.13;5048846;28;20037;-69
2021/04/24 05:17:27;;;;;;;10.02;5.38;;;;;;;15.85;54.08;101202.00;5048239;28;20053;-69
2021/04/24 05:19:54;;;;;;;9.98;4.35;;;;;;;16.00;53.77;101210.91;5048810;28;20124;-68
2021/04/24 05:22:21;;;;;;;14.50;6.85;;;;;;;16.11;53.98;101203.78;5046635;28;20094;-69
2021/04/24 05:24:50;;;;;;;12.95;6.72;;;;;;;16.21;53.67;101201.13;5046848;28;20120;-69
2021/04/24 05:27:17;;;;;;;16.48;8.88;;;;;;;16.27;54.07;101197.59;5047874;28;20056;-69
2021/04/24 05:29:44;;;;;;;15.18;9.63;;;;;;;16.41;54.25;101194.91;5047678;28;20037;-69
2021/04/24 05:32:12;;;;;;;13.48;7.65;;;;;;;16.62;53.79;101185.09;5046398;28;20093;-69
2021/04/24 05:34:39;;;;;;;12.18;6.30;;;;;;;16.79;54.02;101181.53;5048036;28;20623;-69
2021/04/24 05:37:07;;;;;;;11.68;5.60;;;;;;;16.96;53.42;101163.69;5048283;28;20071;-69
2021/04/24 05:39:34;;;;;;;9.25;4.78;;;;;;;17.11;53.06;101152.94;5047494;28;20498;-70
2021/04/24 05:42:03;;;;;;;9.82;4.40;;;;;;;17.26;52.72;101157.31;5048549;28;20624;-69
2021/04/24 05:44:30;;;;;;;5.90;2.80;;;;;;;17.30;52.44;101153.72;5043592;28;20223;-69
2021/04/24 05:46:57;;;;;;;8.23;4.40;;;;;;;17.38;52.10;101158.13;5030240;28;20067;-69
2021/04/24 05:49:24;;;;;;;12.45;6.35;;;;;;;17.40;52.03;101148.31;5030472;28;20061;-69
2021/04/24 05:51:52;;;;;;;14.88;8.77;;;;;;;17.38;52.31;101165.25;5047513;28;20045;-69
2021/04/24 05:54:19;;;;;;;15.52;8.02;;;;;;;17.37;52.03;101176.81;5046871;28;20041;-70
2021/04/24 05:56:46;;;;;;;7.72;5.13;;;;;;;17.40;52.03;101180.34;5046380;28;20578;-69
2021/04/24 05:59:14;;;;;;;6.05;2.85;;;;;;;17.46;51.46;101188.31;5047700;28;20041;-69
2021/04/24 06:01:41;;;;;;;6.22;2.30;;;;;;;17.51;51.01;101201.66;5040369;28;20060;-69
2021/04/24 06:04:08;;;;;;;4.43;1.80;;;;;;;17.57;50.83;101206.97;5044212;28;20049;-70
2021/04/24 06:06:35;;;;;;;18.52;11.40;;;;;;;17.58;50.60;101194.50;5045843;28;20064;-70
2021/04/24 06:09:02;;;;;;;23.00;14.05;;;;;;;17.55;51.27;101192.72;5048111;28;20460;-69
2021/04/24 06:11:29;;;;;;;19.08;11.48;;;;;;;17.57;51.84;101174.03;5043593;28;20037;-69
2021/04/24 06:13:57;;;;;;;14.38;6.95;;;;;;;17.61;51.22;101171.34;5047616;28;20077;-69
2021/04/24 06:16:25;;;;;;;13.45;6.82;;;;;;;17.72;50.57;101187.31;5047980;28;20053;-69
2021/04/24 06:18:52;;;;;;;10.63;5.32;;;;;;;17.83;50.25;101193.47;5045677;28;20122;-69
2021/04/24 06:21:21;;;;;;;10.10;5.53;;;;;;;18.04;49.94;101179.97;5047089;28;20037;-69
2021/04/24 06:23:48;;;;;;;12.68;7.80;;;;;;;18.32;49.62;101160.06;5046350;28;20075;-69
2021/04/24 06:26:15;;;;;;;8.85;5.18;;;;;;;18.62;48.96;101158.94;5042046;28;20171;-70
2021/04/24 06:28:42;;;;;;;9.50;3.95;;;;;;;18.99;48.49;101159.38;5040230;28;20037;-70
2021/04/24 06:31:12;;;;;;;9.70;3.83;;;;;;;19.46;48.37;101153.41;5047465;28;20147;-70
2021/04/24 06:33:40;;;;;;;12.95;6.88;;;;;;;19.96;47.56;101164.22;5047024;28;20041;-70
2021/04/24 06:36:08;;;;;;;23.27;11.73;;;;;;;20.10;46.93;101175.59;5045840;28;20120;-71
2021/04/24 06:38:35;;;;;;;19.95;10.00;;;;;;;20.26;47.26;101179.81;5046879;28;20045;-70
2021/04/24 06:41:02;;;;;;;13.60;5.60;;;;;;;20.65;46.91;101181.81;5047069;28;20064;-70
2021/04/24 06:43:29;;;;;;;6.88;3.92;;;;;;;20.80;46.65;101182.44;5048347;28;20096;-71
2021/04/24 06:45:56;;;;;;;9.23;4.45;;;;;;;20.87;46.17;101184.94;5047541;28;20116;-70
2021/04/24 06:48:23;;;;;;;10.98;4.70;;;;;;;20.97;45.96;101181.16;5047444;28;20123;-70
2021/04/24 06:50:52;;;;;;;8.43;4.50;;;;;;;21.24;45.52;101176.16;5046833;28;20140;-71
2021/04/24 06:53:19;;;;;;;10.68;4.70;;;;;;;21.67;45.20;101174.25;5047384;28;20511;-72
2021/04/24 06:55:46;;;;;;;6.28;2.72;;;;;;;22.04;44.39;101168.94;5046813;28;20067;-72
2021/04/24 06:58:13;;;;;;;4.40;1.55;;;;;;;22.63;43.97;101170.06;5047729;28;20129;-71
2021/04/24 07:00:41;;;;;;;6.40;2.08;;;;;;;23.07;42.98;101165.22;5046612;28;20109;-71
2021/04/24 07:03:08;;;;;;;5.50;1.60;;;;;;;23.16;42.45;101156.00;5045539;28;20045;-71
2021/04/24 07:05:35;;;;;;;5.40;1.50;;;;;;;23.41;42.66;101157.91;5046449;28;20191;-72
2021/04/24 07:08:04;;;;;;;5.55;1.25;;;;;;;23.80;42.13;101157.59;5047203;28;20073;-71
2021/04/24 07:10:31;;;;;;;4.68;1.70;;;;;;;24.13;41.47;101153.78;5050509;28;20147;-71
2021/04/24 07:12:58;;;;;;;6.15;1.40;;;;;;;24.28;41.00;101140.72;5048515;28;20673;-71
2021/04/24 07:15:25;;;;;;;5.13;1.88;;;;;;;24.49;40.89;101140.84;5050115;28;20048;-71
2021/04/24 07:30:12;;;;;;;4.43;1.73;;;;;;;25.87;36.39;101134.63;5115408;27;20407;-71
2021/04/24 07:32:39;;;;;;;4.85;1.80;;;;;;;25.67;37.44;101137.25;5106481;28;20480;-71
2021/04/24 07:35:08;;;;;;;2.97;1.60;;;;;;;25.68;37.75;101137.22;5106488;28;20036;-72
2021/04/24 07:37:35;;;;;;;3.72;1.48;;;;;;;25.62;37.94;101129.34;5105526;27;20185;-71
2021/04/24 07:40:03;;;;;;;4.45;1.65;;;;;;;25.47;37.72;101137.19;5106817;27;20122;-71
2021/04/24 07:42:30;;;;;;;6.90;2.78;;;;;;;25.30;38.23;101133.31;5090675;27;20450;-71
2021/04/24 07:44:57;;;;;;;4.05;1.88;;;;;;;25.42;37.99;101132.81;5104211;27;20040;-71
2021/04/24 07:47:25;;;;;;;6.78;2.20;;;;;;;25.51;37.91;101134.28;5106542;27;20060;-71
2021/04/24 07:49:52;;;;;;;4.43;2.28;;;;;;;25.48;37.66;101125.41;5106260;28;20047;-71
2021/04/24 07:52:20;;;;;;;5.95;1.90;;;;;;;25.55;38.02;101121.50;5100172;28;20073;-71
2021/04/24 07:54:48;;;;;;;5.50;2.25;;;;;;;25.67;37.54;101124.63;5104159;27;20062;-70
2021/04/24 07:57:16;;;;;;;5.15;2.00;;;;;;;25.68;37.33;101128.22;5103230;27;20316;-71
2021/04/24 07:59:45;;;;;;;4.10;1.52;;;;;;;25.79;37.22;101125.97;5106098;28;20135;-70
2021/04/24 08:02:13;;;;;;;6.07;1.75;;;;;;;26.02;37.27;101116.88;5086670;28;20032;-71
2021/04/24 08:04:42;;;;;;;3.67;1.73;;;;;;;26.16;36.91;101109.91;5101498;28;20122;-71
2021/04/24 08:07:10;;;;;;;7.47;2.10;;;;;;;26.24;36.77;101109.63;5105938;27;20123;-71
2021/04/24 08:09:39;;;;;;;5.13;2.00;;;;;;;26.35;36.46;101109.13;5105685;28;20055;-72
2021/04/24 08:12:07;;;;;;;9.15;2.10;;;;;;;26.22;36.47;101116.00;5105633;27;20169;-71
2021/04/24 08:14:34;;;;;;;5.97;2.15;;;;;;;26.25;36.54;101118.63;5106067;27;20345;-71
2021/04/24 08:17:01;;;;;;;7.20;1.75;;;;;;;26.23;36.90;101113.25;5122082;28;20043;-71
2021/04/24 08:19:29;;;;;;;5.25;1.85;;;;;;;26.23;36.96;101105.13;5107322;27;20046;-71
2021/04/24 08:21:58;;;;;;;7.85;1.80;;;;;;;26.49;36.52;101098.56;5124383;27;20067;-71
2021/04/24 08:24:25;;;;;;;6.65;3.08;;;;;;;26.48;36.55;101094.09;5119798;27;20043;-71
2021/04/24 08:26:54;;;;;;;8.00;1.63;;;;;;;26.62;36.72;101079.94;5123610;27;20045;-71
2021/04/24 08:29:21;;;;;;;8.00;2.30;;;;;;;26.86;36.61;101082.38;5120058;27;20492;-71
2021/04/24 08:31:49;;;;;;;4.10;1.65;;;;;;;27.14;36.29;101083.84;5097332;28;20059;-71
2021/04/24 08:34:17;;;;;;;6.10;1.85;;;;;;;27.34;35.71;101078.31;5105854;28;20488;-71
2021/04/24 08:36:44;;;;;;;5.82;1.95;;;;;;;27.47;35.49;101075.91;5093828;28;20377;-71
2021/04/24 08:39:13;;;;;;;4.88;1.92;;;;;;;27.60;35.13;101055.38;5111760;28;20123;-71
2021/04/24 08:41:40;;;;;;;5.65;1.60;;;;;;;27.67;34.97;101052.28;5110324;28;20169;-71
2021/04/24 08:44:07;;;;;;;6.68;1.80;;;;;;;27.63;34.85;101044.38;5104963;28;20050;-71
2021/04/24 08:46:34;;;;;;;5.25;1.80;;;;;;;27.55;34.85;101035.75;5093736;28;20114;-71
2021/04/24 08:49:02;;;;;;;8.07;2.30;;;;;;;27.51;35.07;101028.66;5093954;28;20068;-71
2021/04/24 08:51:30;;;;;;;6.80;1.85;;;;;;;27.53;35.02;101021.38;5108941;27;20415;-71
2021/04/24 08:53:59;;;;;;;11.77;3.30;;;;;;;27.42;35.22;101010.16;5111569;28;20540;-71
2021/04/24 08:56:28;;;;;;;7.55;1.92;;;;;;;27.55;34.93;101009.50;5093201;28;20046;-71
2021/04/24 08:58:57;;;;;;;5.05;2.10;;;;;;;27.83;34.81;100994.50;5108103;27;20430;-71
2021/04/24 09:01:26;;;;;;;6.78;2.00;;;;;;;27.66;34.99;100993.53;5107960;28;20044;-71
2021/04/24 09:03:53;;;;;;;11.63;2.53;;;;;;;27.56;34.92;100985.97;5111722;28;20043;-71
2021/04/24 09:06:21;;;;;;;9.65;2.30;;;;;;;27.35;35.07;100985.19;5110381;28;20055;-71
2021/04/24 09:08:54;;;;;;;4.18;1.98;;;;;;;27.42;35.06;100980.31;5107295;28;20055;-71
2021/04/24 09:11:22;;;;;;;7.30;2.38;;;;;;;27.44;34.65;100968.41;5093002;28;20081;-71
2021/04/24 09:14:09;;;;;;;6.60;2.00;;;;;;;27.84;34.27;100967.25;5108752;28;20040;-70
2021/04/24 09:16:40;;;;;;;7.53;2.10;;;;;;;27.59;34.46;100950.50;5109606;28;20047;-71
2021/04/24 09:19:25;;;;;;;8.85;2.28;;;;;;;27.53;34.39;100948.13;5098540;28;20124;-72
2021/04/24 09:22:14;;;;;;;7.78;2.42;;;;;;;27.49;35.02;100938.38;5095305;28;20036;-71
2021/04/24 09:24:45;;;;;;;6.15;2.67;;;;;;;27.57;35.39;100936.19;5105666;28;20040;-71
2021/04/24 09:27:13;;;;;;;5.40;2.10;;;;;;;27.51;35.01;100934.59;5105951;28;20046;-71
2021/04/24 09:29:41;;;;;;;8.18;2.20;;;;;;;27.52;35.28;100932.81;5110218;28;20089;-71
2021/04/24 09:32:15;;;;;;;6.47;2.10;;;;;;;27.44;35.44;100929.59;5109800;27;20122;-72
2021/04/24 09:34:47;;;;;;;6.72;1.77;;;;;;;27.47;35.78;100929.41;5099159;28;20096;-72
2021/04/24 09:37:17;;;;;;;6.82;1.77;;;;;;;27.66;35.95;100923.00;5109359;28;20039;-71
2021/04/24 09:39:45;;;;;;;7.70;2.05;;;;;;;27.72;35.32;100919.94;5109238;28;20032;-71
2021/04/24 09:42:36;;;;;;;7.43;1.90;;;;;;;27.72;34.59;100913.63;5103178;28;20067;-71
2021/04/24 09:45:25;;;;;;;8.18;2.97;;;;;;;27.98;33.35;100909.53;5105471;28;20503;-71
2021/04/24 09:47:52;;;;;;;11.00;3.88;;;;;;;28.28;32.91;100907.03;5109270;27;20119;-71
2021/04/24 09:50:22;;;;;;;6.25;2.53;;;;;;;28.60;33.30;100902.50;5106291;28;20031;-71
2021/04/24 09:52:49;;;;;;;5.32;1.80;;;;;;;28.81;33.06;100906.75;5108792;28;20138;-71
2021/04/24 09:55:35;;;;;;;4.32;2.13;;;;;;;28.52;33.59;100901.09;5108719;28;20123;-72
2021/04/24 09:58:05;;;;;;;6.93;2.55;;;;;;;28.46;33.80;100900.56;5109807;28;20047;-71
2021/04/24 10:00:34;;;;;;;7.57;2.30;;;;;;;28.13;34.24;100897.84;5109293;28;20411;-71
2021/04/24 10:03:38;;;;;;;5.18;2.53;;;;;;;28.07;35.03;100899.06;5101464;28;20055;-71
2021/04/24 10:06:25;;;;;;;5.78;2.55;;;;;;;28.56;34.80;100904.50;5101887;28;20470;-71
2021/04/24 10:09:09;;;;;;;5.47;1.48;;;;;;;28.80;34.41;100915.84;5108649;28;20122;-71
2021/04/24 10:11:37;;;;;;;7.20;2.25;;;;;;;28.93;33.94;100915.06;5108278;28;20122;-71
2021/04/24 10:14:04;;;;;;;4.55;1.88;;;;;;;29.16;33.57;100913.69;5097637;28;20573;-71
2021/04/24 10:16:37;;;;;;;6.78;1.70;;;;;;;28.98;33.74;100913.91;5108692;28;20115;-72
2021/04/24 10:19:07;;;;;;;8.73;2.30;;;;;;;28.90;33.68;100911.63;5109939;28;20496;-71
2021/04/24 10:21:35;;;;;;;7.25;1.67;;;;;;;28.50;34.16;100913.88;5097571;28;20044;-71
2021/04/24 10:24:05;;;;;;;10.15;3.08;;;;;;;28.17;35.10;100912.16;5083628;28;20040;-71
2021/04/24 10:26:33;;;;;;;6.13;2.60;;;;;;;27.71;36.08;100923.63;5109733;28;20039;-72
2021/04/24 10:29:01;;;;;;;8.07;1.90;;;;;;;27.56;36.34;100919.03;5101231;28;20599;-71
2021/04/24 10:31:30;;;;;;;7.10;2.22;;;;;;;27.45;36.73;100921.34;5108238;28;20032;-71
2021/04/24 10:33:59;;;;;;;9.43;2.63;;;;;;;27.40;37.05;100911.72;5108218;28;20043;-71
2021/04/24 10:36:27;;;;;;;6.75;2.50;;;;;;;27.67;37.04;100907.59;5109245;28;20515;-70
2021/04/24 10:38:57;;;;;;;6.45;2.40;;;;;;;27.65;36.90;100907.66;5104871;28;20119;-71
2021/04/24 10:41:32;;;;;;;9.13;2.78;;;;;;;27.54;37.02;100904.66;5108076;28;20721;-71
2021/04/24 10:44:01;;;;;;;6.25;2.00;;;;;;;27.52;36.78;100911.09;5107385;28;20563;-71
2021/04/24 10:46:31;;;;;;;8.32;2.17;;;;;;;27.42;36.78;100909.81;5107424;28;20056;-71
2021/04/24 10:49:22;;;;;;;7.70;2.25;;;;;;;27.27;36.93;100906.91;5105350;28;20154;-71
2021/04/24 10:51:54;;;;;;;7.57;2.95;;;;;;;27.08;36.91;100906.09;5089043;28;20123;-71
2021/04/24 10:54:22;;;;;;;6.65;2.38;;;;;;;26.97;37.43;100903.06;5102896;28;20055;-71
2021/04/24 10:56:49;;;;;;;8.57;2.50;;;;;;;27.21;37.36;100903.66;5091240;28;20122;-70
2021/04/24 11:00:22;;;;;;;9.18;2.83;;;;;;;27.42;37.15;100897.13;5113418;27;20790;-71
2021/04/24 11:02:50;;;;;;;6.55;2.13;;;;;;;27.36;37.40;100884.75;5106411;28;20048;-70
2021/04/24 11:05:25;;;;;;;8.95;3.15;;;;;;;27.43;37.58;100881.72;5105211;28;20444;-70
2021/04/24 11:08:33;;;;;;;6.32;2.47;;;;;;;27.43;37.74;100884.44;5106640;28;20423;-71
2021/04/24 11:11:03;;;;;;;6.28;2.58;;;;;;;27.40;38.04;100863.78;5118444;27;20471;-71
2021/04/24 11:13:33;;;;;;;6.32;2.45;;;;;;;27.48;38.17;100857.94;5126219;27;20092;-71
2021/04/24 11:16:03;;;;;;;7.85;3.90;;;;;;;27.38;38.02;100853.00;5125375;27;20039;-71
2021/04/24 11:18:31;;;;;;;10.65;3.03;;;;;;;27.74;37.73;100847.50;5125546;27;20043;-71
2021/04/24 11:21:03;;;;;;;7.60;2.58;;;;;;;28.07;37.23;100849.31;5126325;27;20035;-71
2021/04/24 11:23:42;;;;;;;6.72;2.20;;;;;;;28.48;37.01;100839.75;5126598;27;20093;-71
2021/04/24 11:26:11;;;;;;;8.88;2.90;;;;;;;28.71;36.61;100849.28;5102769;27;20410;-71
2021/04/24 11:29:11;;;;;;;6.63;2.30;;;;;;;28.52;36.58;100846.75;5105709;28;20040;-71
2021/04/24 11:31:54;;;;;;;5.97;2.50;;;;;;;28.38;36.71;100845.78;5104815;28;20044;-71
2021/04/24 11:34:36;;;;;;;7.72;2.33;;;;;;;28.33;37.01;100846.03;5105585;28;20071;-70
2021/04/24 11:37:24;;;;;;;5.32;1.92;;;;;;;27.88;37.57;100835.88;5105363;28;20051;-71
2021/04/24 11:40:09;;;;;;;7.18;2.45;;;;;;;27.92;37.01;100829.31;5104874;28;20043;-71
2021/04/24 11:42:38;;;;;;;6.28;2.60;;;;;;;27.91;36.67;100826.69;5103345;28;20040;-71
2021/04/24 11:45:15;;;;;;;6.25;2.30;;;;;;;27.94;36.56;100829.22;5121585;28;20071;-71
2021/04/24 11:47:50;;;;;;;7.85;2.78;;;;;;;27.65;37.50;100825.38;5114396;27;20046;-71